Terminal Aerodrome Forecast
Issued by NWS North Platte, NE

Home | Current Version | Previous Version | Text Only | Print | Product List | Glossary Off
Versions: 1 2 3 4 5 6 7 8 9 10 11 12

000
FTUS43 KLBF 031732
TAFVTN
TAF
KVTN 031732Z 0318/0418 21017G25KT P6SM FEW250
     FM032200 24010KT P6SM SCT200
     FM040100 26006KT P6SM BKN200=

USA.gov is the U.S. government's official web portal to all federal, state and local government web resources and services.